This is the latest recevied weather packets stored in our database for station/object KJ7IVE-13. If no packets are shown the sender has not sent any weather packets the latest 10 day(s).
| Time | Temp. | Humidity | Pressure | Rain* | Wind** | Luminosity | Snow |
|---|---|---|---|---|---|---|---|
| 1777811252 | 11.11° C | 10% | 1017.2 hPa | 0 mm | - | 3 W/m² | - |
| 1777810949 | 11.67° C | 10% | 1016.9 hPa | 0 mm | - | 0 W/m² | - |
| 1777810343 | 11.67° C | 10% | 1016.8 hPa | 0 mm | - | 0 W/m² | - |
| 1777810038 | 12.22° C | 10% | 1016.6 hPa | 0 mm | - | 0 W/m² | - |
| 1777809737 | 12.22° C | 10% | 1016.7 hPa | 0 mm | - | 0 W/m² | - |
| 1777809434 | 12.22° C | 10% | 1017 hPa | 0 mm | - | 0 W/m² | - |
| 1777807922 | 12.22° C | 10% | 1017 hPa | 0 mm | - | 0 W/m² | - |
| 1777807619 | 12.22° C | 10% | 1017.2 hPa | 0 mm | - | 0 W/m² | - |
| 1777807316 | 12.22° C | 10% | 1017.4 hPa | 0 mm | - | 0 W/m² | - |
| 1777807012 | 12.22° C | 10% | 1017.6 hPa | 0 mm | - | 0 W/m² | - |
| 1777806709 | 12.22° C | 10% | 1017.4 hPa | 0 mm | - | 0 W/m² | - |
| 1777806102 | 11.67° C | 10% | 1017.5 hPa | 0 mm | - | 0 W/m² | - |
| 1777805798 | 11.67° C | 10% | 1017.5 hPa | 0 mm | - | 0 W/m² | - |
| 1777803982 | 11.11° C | 10% | 1017.5 hPa | 0 mm | - | 0 W/m² | - |
| 1777803679 | 10.56° C | 10% | 1017.6 hPa | 0 mm | - | 0 W/m² | - |
| 1777803073 | 11.11° C | 10% | 1017.6 hPa | 0 mm | - | 0 W/m² | - |
| 1777802770 | 11.11° C | 10% | 1017.4 hPa | 0 mm | - | 0 W/m² | - |
| 1777802166 | 10.56° C | 10% | 1017.4 hPa | 0 mm | - | 0 W/m² | - |
| 1777801864 | 10.56° C | 10% | 1017.5 hPa | 0 mm | - | 0 W/m² | - |
| 1777801560 | 10.56° C | 10% | 1017.5 hPa | 0 mm | - | 0 W/m² | - |
| 1777801257 | 10° C | 10% | 1017.7 hPa | 0 mm | - | 0 W/m² | - |
| 1777800953 | 10.56° C | 10% | 1017.5 hPa | 0 mm | - | 0 W/m² | - |
| 1777800650 | 10° C | 10% | 1017.7 hPa | 0 mm | - | 0 W/m² | - |
| 1777800346 | 10° C | 10% | 1017.6 hPa | 0 mm | - | 0 W/m² | - |
| 1777800044 | 10° C | 10% | 1017.7 hPa | 0 mm | - | 0 W/m² | - |
* Rain latest hour (hover to see other rain measurements)
** Current wind speed in m/s (hover to see current wind gust speed)